Time;durP1;ratioP1;P1;durP2;ratioP2;P2;SDS_P1;SDS_P2;PMS_P1;PMS_P2;Temp;Humidity;BMP_temperature;BMP_pressure;BME280_temperature;BME280_humidity;BME280_pressure;Samples;Min_cycle;Max_cycle;Signal;HPM_P1;HPM_P2
2022/11/04 00:01:19;;;;;;;;;;;19.60;71.50;;;;;;4493002;31;19958;-71
2022/11/04 00:03:44;;;;;;;;;;;19.60;71.60;;;;;;4493158;31;20026;-71
2022/11/04 00:06:10;;;;;;;;;;;19.60;71.50;;;;;;4492629;31;20429;-71
2022/11/04 00:08:36;;;;;;;;;;;19.60;71.50;;;;;;4478564;31;19974;-71
2022/11/04 00:13:46;;;;;;;;;;;19.60;71.50;;;;;;4493012;31;19987;-71
2022/11/04 00:18:58;;;;;;;;;;;19.60;71.60;;;;;;4493140;31;19970;-72
2022/11/04 00:29:38;;;;;;;;;;;19.50;71.40;;;;;;4492990;31;20021;-70
2022/11/04 00:34:48;;;;;;;;;;;19.50;71.50;;;;;;4492945;31;20009;-71
2022/11/04 00:37:13;;;;;;;;;;;19.50;71.40;;;;;;4492890;31;19999;-70
2022/11/04 00:39:39;;;;;;;;;;;19.50;71.50;;;;;;4492504;31;19983;-71
2022/11/04 00:42:05;;;;;;;;;;;19.50;71.50;;;;;;4493105;31;20067;-70
2022/11/04 00:44:30;;;;;;;;;;;19.50;71.40;;;;;;4478514;31;20163;-70
2022/11/04 00:46:56;;;;;;;;;;;19.50;71.40;;;;;;4492844;31;20362;-70
2022/11/04 00:49:22;;;;;;;;;;;19.50;71.40;;;;;;4492405;31;19969;-71
2022/11/04 00:51:47;;;;;;;;;;;19.50;71.40;;;;;;4492880;31;20436;-71
2022/11/04 00:54:13;;;;;;;;;;;19.50;71.40;;;;;;4478097;32;20323;-71
2022/11/04 00:56:39;;;;;;;;;;;19.50;71.40;;;;;;4492471;32;20087;-71
2022/11/04 00:59:06;;;;;;;;;;;19.50;71.40;;;;;;4492555;32;19987;-70
2022/11/04 01:01:31;;;;;;;;;;;19.50;71.40;;;;;;4492283;32;19974;-70
2022/11/04 01:03:57;;;;;;;;;;;19.50;71.40;;;;;;4492517;32;20165;-69
2022/11/04 01:06:24;;;;;;;;;;;19.40;71.40;;;;;;4492283;32;20028;-71
2022/11/04 01:08:56;;;;;;;;;;;19.40;71.40;;;;;;4492739;32;19981;-71
2022/11/04 01:11:22;;;;;;;;;;;19.40;71.40;;;;;;4492453;32;20059;-71
2022/11/04 01:13:50;;;;;;;;;;;19.40;71.40;;;;;;4492648;32;20017;-71
2022/11/04 01:16:17;;;;;;;;;;;19.40;71.40;;;;;;4492424;32;19985;-71
2022/11/04 01:18:42;;;;;;;;;;;19.40;71.40;;;;;;4492822;32;19969;-71
2022/11/04 01:21:10;;;;;;;;;;;19.40;71.40;;;;;;4492861;32;20110;-71
2022/11/04 01:23:35;;;;;;;;;;;19.40;71.30;;;;;;4492071;32;20007;-71
2022/11/04 01:26:08;;;;;;;;;;;19.40;71.40;;;;;;4492632;32;19961;-71
2022/11/04 01:28:34;;;;;;;;;;;19.40;71.40;;;;;;4492389;32;20392;-70
2022/11/04 01:31:04;;;;;;;;;;;19.40;71.40;;;;;;4492377;32;19973;-70
2022/11/04 01:33:30;;;;;;;;;;;19.40;71.40;;;;;;4492613;32;20110;-71
2022/11/04 01:35:58;;;;;;;;;;;19.40;71.40;;;;;;4492243;32;20108;-70
2022/11/04 01:38:23;;;;;;;;;;;19.40;71.40;;;;;;4491944;32;19965;-71
2022/11/04 01:40:49;;;;;;;;;;;19.40;71.40;;;;;;4491982;32;20025;-70
2022/11/04 01:43:16;;;;;;;;;;;19.40;71.40;;;;;;4492302;32;20024;-70
2022/11/04 01:45:44;;;;;;;;;;;19.30;71.40;;;;;;4492284;32;20532;-70
2022/11/04 01:48:16;;;;;;;;;;;19.30;71.40;;;;;;4492393;32;19969;-70
2022/11/04 01:50:41;;;;;;;;;;;19.30;71.40;;;;;;4492257;32;20096;-70
2022/11/04 01:53:13;;;;;;;;;;;19.30;71.40;;;;;;4492717;32;19976;-70
2022/11/04 01:55:40;;;;;;;;;;;19.30;71.40;;;;;;4492125;32;20522;-70
2022/11/04 01:58:09;;;;;;;;;;;19.30;71.40;;;;;;4492028;32;19965;-71
2022/11/04 02:00:39;;;;;;;;;;;19.30;71.50;;;;;;4492628;31;20423;-71
2022/11/04 02:03:07;;;;;;;;;;;19.30;71.50;;;;;;4494682;31;20103;-70
2022/11/04 02:05:33;;;;;;;;;;;19.30;71.50;;;;;;4495151;31;20062;-71
2022/11/04 02:08:01;;;;;;;;;;;19.30;71.50;;;;;;4494735;31;20021;-70
2022/11/04 02:10:28;;;;;;;;;;;19.30;71.50;;;;;;4494835;31;19974;-71
2022/11/04 02:12:54;;;;;;;;;;;19.30;71.60;;;;;;4494531;31;19988;-71
2022/11/04 02:15:26;;;;;;;;;;;19.30;71.60;;;;;;4494776;31;20111;-71
2022/11/04 02:17:57;;;;;;;;;;;19.30;71.70;;;;;;4480486;31;20487;-70
2022/11/04 02:20:28;;;;;;;;;;;19.30;71.60;;;;;;4494927;31;20037;-71
2022/11/04 02:22:53;;;;;;;;;;;19.30;71.60;;;;;;4480654;31;19981;-71
2022/11/04 02:25:25;;;;;;;;;;;19.20;71.50;;;;;;4494838;31;20028;-70
2022/11/04 02:28:03;;;;;;;;;;;19.20;71.50;;;;;;4494459;31;20191;-71
2022/11/04 02:30:34;;;;;;;;;;;19.20;71.50;;;;;;4494734;31;20025;-70
2022/11/04 02:33:06;;;;;;;;;;;19.30;71.50;;;;;;4494669;31;20020;-71
2022/11/04 02:35:35;;;;;;;;;;;19.30;71.50;;;;;;4494663;31;20099;-71
2022/11/04 02:38:09;;;;;;;;;;;19.30;71.60;;;;;;4494399;31;19973;-70
2022/11/04 02:40:41;;;;;;;;;;;19.20;71.50;;;;;;4494284;31;19984;-71
2022/11/04 02:43:10;;;;;;;;;;;19.30;72.40;;;;;;4494371;31;20027;-71
2022/11/04 02:45:41;;;;;;;;;;;19.20;71.50;;;;;;4494320;31;19981;-71
2022/11/04 02:48:11;;;;;;;;;;;19.30;71.50;;;;;;4493982;31;20008;-71
2022/11/04 02:50:36;;;;;;;;;;;19.20;71.50;;;;;;4494185;31;19992;-71
2022/11/04 02:53:14;;;;;;;;;;;19.20;71.50;;;;;;4494219;31;20284;-71
2022/11/04 02:55:42;;;;;;;;;;;19.20;71.50;;;;;;4493828;31;19992;-71
2022/11/04 02:58:12;;;;;;;;;;;19.20;72.40;;;;;;4494058;31;20020;-71
2022/11/04 03:00:41;;;;;;;;;;;19.20;71.50;;;;;;4494405;31;20028;-71
2022/11/04 03:03:12;;;;;;;;;;;19.20;71.50;;;;;;4493710;31;19985;-71
2022/11/04 03:05:39;;;;;;;;;;;19.20;71.50;;;;;;4493601;31;20040;-70
2022/11/04 03:08:13;;;;;;;;;;;19.20;71.50;;;;;;4494278;31;19966;-70
2022/11/04 03:10:41;;;;;;;;;;;19.20;71.50;;;;;;4494343;31;20010;-71
2022/11/04 03:13:13;;;;;;;;;;;19.20;71.50;;;;;;4479384;31;20035;-71
2022/11/04 03:15:41;;;;;;;;;;;19.20;71.50;;;;;;4493774;31;19993;-71
2022/11/04 03:18:15;;;;;;;;;;;19.20;71.50;;;;;;4494026;31;20017;-72
2022/11/04 03:20:43;;;;;;;;;;;19.20;71.50;;;;;;4493451;31;19984;-71
2022/11/04 03:23:09;;;;;;;;;;;19.20;71.50;;;;;;4493722;31;20009;-71
2022/11/04 03:25:37;;;;;;;;;;;19.20;71.50;;;;;;4493664;31;19981;-71
2022/11/04 03:28:09;;;;;;;;;;;19.20;71.50;;;;;;4493867;31;20018;-71
2022/11/04 03:30:41;;;;;;;;;;;19.20;71.60;;;;;;4493654;31;20494;-71
2022/11/04 03:33:18;;;;;;;;;;;19.20;71.60;;;;;;4493610;31;20391;-72
2022/11/04 03:35:48;;;;;;;;;;;19.10;71.50;;;;;;4493727;31;20477;-71
2022/11/04 03:38:14;;;;;;;;;;;19.20;71.60;;;;;;4493379;31;20100;-70
2022/11/04 03:40:40;;;;;;;;;;;19.20;71.60;;;;;;4492889;31;20107;-70
2022/11/04 03:43:10;;;;;;;;;;;19.10;71.50;;;;;;4493510;31;19981;-70
2022/11/04 03:45:36;;;;;;;;;;;19.10;71.60;;;;;;4493700;31;20031;-71
2022/11/04 03:48:02;;;;;;;;;;;19.10;71.50;;;;;;4493676;31;20095;-71
2022/11/04 03:50:32;;;;;;;;;;;19.10;71.60;;;;;;4493102;31;20054;-71
2022/11/04 03:52:58;;;;;;;;;;;19.10;71.60;;;;;;4493269;31;20334;-71
2022/11/04 03:55:31;;;;;;;;;;;19.10;71.60;;;;;;4493210;31;20418;-71
2022/11/04 03:58:01;;;;;;;;;;;19.10;71.60;;;;;;4493549;31;19969;-71
2022/11/04 04:00:32;;;;;;;;;;;19.10;71.60;;;;;;4493668;31;19981;-71
2022/11/04 04:03:11;;;;;;;;;;;19.10;71.60;;;;;;4493725;31;20027;-70
2022/11/04 04:05:50;;;;;;;;;;;19.10;71.60;;;;;;4478841;31;19990;-70
2022/11/04 04:08:32;;;;;;;;;;;19.10;71.60;;;;;;4493292;31;20476;-71
2022/11/04 04:10:58;;;;;;;;;;;19.10;71.70;;;;;;4492987;31;19978;-71
2022/11/04 04:13:28;;;;;;;;;;;19.10;71.60;;;;;;4492925;31;19981;-71
2022/11/04 04:16:07;;;;;;;;;;;19.10;71.60;;;;;;4492892;31;20058;-71
2022/11/04 04:18:37;;;;;;;;;;;19.10;71.60;;;;;;4492960;31;20057;-71
2022/11/04 04:21:04;;;;;;;;;;;19.10;71.70;;;;;;4492809;31;19966;-70
2022/11/04 04:29:02;;;;;;;;;;;19.00;71.70;;;;;;4493105;31;20030;-70
2022/11/04 04:34:14;;;;;;;;;;;19.00;71.70;;;;;;4493046;31;20517;-71
2022/11/04 04:36:45;;;;;;;;;;;19.00;71.70;;;;;;4492313;31;19982;-71
2022/11/04 04:45:02;;;;;;;;;;;19.00;71.70;;;;;;4492990;31;19969;-70
2022/11/04 04:47:31;;;;;;;;;;;19.00;71.90;;;;;;4478659;31;20111;-70
2022/11/04 04:49:58;;;;;;;;;;;19.00;71.80;;;;;;4492902;31;19993;-70
2022/11/04 04:52:25;;;;;;;;;;;19.00;71.70;;;;;;4492663;31;19973;-70
2022/11/04 04:54:51;;;;;;;;;;;19.00;71.70;;;;;;4492698;31;20533;-71
2022/11/04 04:57:17;;;;;;;;;;;18.90;71.70;;;;;;4492617;32;19976;-71
2022/11/04 04:59:42;;;;;;;;;;;19.00;71.70;;;;;;4492631;32;20482;-70
2022/11/04 05:02:14;;;;;;;;;;;18.90;71.80;;;;;;4492639;32;20169;-70
2022/11/04 05:04:40;;;;;;;;;;;19.00;71.90;;;;;;4477994;32;19996;-71
2022/11/04 05:07:06;;;;;;;;;;;18.90;71.80;;;;;;4492215;32;19970;-71
2022/11/04 05:09:32;;;;;;;;;;;18.90;71.90;;;;;;4492362;32;20383;-70
2022/11/04 05:11:58;;;;;;;;;;;18.90;72.00;;;;;;4492435;32;20221;-71
2022/11/04 05:14:23;;;;;;;;;;;18.90;72.00;;;;;;4492238;32;20318;-70
2022/11/04 05:16:49;;;;;;;;;;;18.90;72.00;;;;;;4492186;32;20354;-70
2022/11/04 05:19:15;;;;;;;;;;;18.90;72.00;;;;;;4492042;32;20088;-70
2022/11/04 05:21:40;;;;;;;;;;;18.90;72.00;;;;;;4492511;32;19962;-70
2022/11/04 05:24:06;;;;;;;;;;;18.90;72.10;;;;;;4492119;32;19961;-70
2022/11/04 05:26:32;;;;;;;;;;;18.80;72.00;;;;;;4492608;32;20338;-70
2022/11/04 05:28:57;;;;;;;;;;;18.80;72.00;;;;;;4492247;32;19976;-70
2022/11/04 05:31:23;;;;;;;;;;;18.80;72.00;;;;;;4492339;32;19980;-70
2022/11/04 05:33:49;;;;;;;;;;;18.80;72.00;;;;;;4492250;32;20012;-70
2022/11/04 05:36:15;;;;;;;;;;;18.80;72.00;;;;;;4493684;31;20015;-71
2022/11/04 05:38:41;;;;;;;;;;;18.80;72.10;;;;;;4495242;31;19977;-70
2022/11/04 05:41:07;;;;;;;;;;;18.80;72.10;;;;;;4495337;31;20394;-71
2022/11/04 05:43:33;;;;;;;;;;;18.80;72.10;;;;;;4494927;31;19969;-69
2022/11/04 05:45:59;;;;;;;;;;;18.80;72.10;;;;;;4495223;31;20103;-71
2022/11/04 05:48:25;;;;;;;;;;;18.80;72.00;;;;;;4495186;31;19965;-72
2022/11/04 05:50:50;;;;;;;;;;;18.80;72.10;;;;;;4495297;31;19977;-72
2022/11/04 05:53:16;;;;;;;;;;;18.80;72.10;;;;;;4495185;31;20486;-73
2022/11/04 05:55:42;;;;;;;;;;;18.80;72.20;;;;;;4495303;31;20545;-73
2022/11/04 05:58:08;;;;;;;;;;;18.80;72.10;;;;;;4495062;31;19988;-72
2022/11/04 06:00:33;;;;;;;;;;;18.80;72.20;;;;;;4480832;31;19962;-72
2022/11/04 06:02:59;;;;;;;;;;;18.80;72.20;;;;;;4481015;31;20003;-73
2022/11/04 06:05:26;;;;;;;;;;;18.80;72.10;;;;;;4494958;31;20008;-72
2022/11/04 06:07:52;;;;;;;;;;;18.80;72.20;;;;;;4495074;31;20102;-72
2022/11/04 06:10:18;;;;;;;;;;;18.80;72.20;;;;;;4495223;31;20166;-73
2022/11/04 06:12:44;;;;;;;;;;;18.80;72.20;;;;;;4495004;31;20392;-72
2022/11/04 06:15:09;;;;;;;;;;;18.80;72.20;;;;;;4494700;31;20108;-72
2022/11/04 06:17:35;;;;;;;;;;;18.80;72.20;;;;;;4494857;31;19973;-72
2022/11/04 06:20:01;;;;;;;;;;;18.80;72.20;;;;;;4495084;31;19974;-73
2022/11/04 06:22:26;;;;;;;;;;;18.80;72.20;;;;;;4494971;31;19973;-72
2022/11/04 06:24:52;;;;;;;;;;;18.80;72.20;;;;;;4494696;31;20100;-73
2022/11/04 06:27:18;;;;;;;;;;;18.80;72.20;;;;;;4494667;31;19977;-71
2022/11/04 06:29:44;;;;;;;;;;;18.80;72.30;;;;;;4494848;31;20371;-69
2022/11/04 06:32:13;;;;;;;;;;;18.80;72.20;;;;;;4494645;31;20112;-71
2022/11/04 06:34:39;;;;;;;;;;;18.80;72.30;;;;;;4494736;31;19990;-71
2022/11/04 06:37:06;;;;;;;;;;;18.80;72.30;;;;;;4494459;31;19981;-70
2022/11/04 06:39:32;;;;;;;;;;;18.80;72.30;;;;;;4494692;31;20413;-71
2022/11/04 06:41:58;;;;;;;;;;;18.80;72.30;;;;;;4494485;31;20397;-70
2022/11/04 06:44:23;;;;;;;;;;;18.80;73.20;;;;;;4494124;31;19969;-70
2022/11/04 06:46:49;;;;;;;;;;;18.70;72.30;;;;;;4493967;31;20009;-70
2022/11/04 06:49:17;;;;;;;;;;;18.80;72.40;;;;;;4494265;31;20011;-71
2022/11/04 06:51:43;;;;;;;;;;;18.70;72.30;;;;;;4494285;31;20108;-71
2022/11/04 06:54:08;;;;;;;;;;;18.70;72.30;;;;;;4494288;31;19977;-70
2022/11/04 06:56:34;;;;;;;;;;;18.70;72.30;;;;;;4494238;31;20051;-71
2022/11/04 06:59:00;;;;;;;;;;;18.70;72.30;;;;;;4494178;31;19988;-71
2022/11/04 07:01:27;;;;;;;;;;;18.70;73.20;;;;;;4494032;31;20377;-71
2022/11/04 07:03:54;;;;;;;;;;;18.70;72.30;;;;;;4494000;31;19989;-71
2022/11/04 07:06:21;;;;;;;;;;;18.70;72.30;;;;;;4479609;31;20087;-71
2022/11/04 07:08:48;;;;;;;;;;;18.70;72.40;;;;;;4494038;31;19982;-70
2022/11/04 07:11:14;;;;;;;;;;;18.70;72.40;;;;;;4494020;31;19969;-70
2022/11/04 07:13:39;;;;;;;;;;;18.70;72.40;;;;;;4479484;31;20021;-71
2022/11/04 07:16:06;;;;;;;;;;;18.70;72.40;;;;;;4493907;31;19977;-71
2022/11/04 07:18:32;;;;;;;;;;;18.60;72.40;;;;;;4479639;31;19982;-71
2022/11/04 07:20:58;;;;;;;;;;;18.70;72.50;;;;;;4493844;31;19982;-70
2022/11/04 07:23:23;;;;;;;;;;;18.70;72.40;;;;;;4493747;31;20000;-71
2022/11/04 07:25:49;;;;;;;;;;;18.70;72.50;;;;;;4479510;31;20420;-71
2022/11/04 07:28:15;;;;;;;;;;;18.60;72.40;;;;;;4493711;31;19962;-71
2022/11/04 07:30:41;;;;;;;;;;;18.60;72.40;;;;;;4493514;31;20035;-71
2022/11/04 07:33:07;;;;;;;;;;;18.60;72.40;;;;;;4493667;31;20100;-71
2022/11/04 07:35:33;;;;;;;;;;;18.60;72.40;;;;;;4493221;31;19974;-72
2022/11/04 07:37:59;;;;;;;;;;;18.60;72.40;;;;;;4493385;31;20005;-71
2022/11/04 07:40:30;;;;;;;;;;;18.70;72.40;;;;;;4493260;31;19985;-71
2022/11/04 07:42:56;;;;;;;;;;;18.60;72.40;;;;;;4493483;31;19988;-71
2022/11/04 07:45:21;;;;;;;;;;;18.60;72.40;;;;;;4493395;31;19973;-71
2022/11/04 07:47:47;;;;;;;;;;;18.60;72.30;;;;;;4493551;31;20122;-71
2022/11/04 07:50:12;;;;;;;;;;;18.60;72.20;;;;;;4493180;31;19973;-72
2022/11/04 07:52:38;;;;;;;;;;;18.60;71.60;;;;;;4493349;31;19977;-72
2022/11/04 07:55:04;;;;;;;;;;;18.60;70.60;;;;;;4493497;31;20054;-72
2022/11/04 07:57:30;;;;;;;;;;;18.60;69.70;;;;;;4493259;31;20314;-71
2022/11/04 07:59:55;;;;;;;;;;;18.60;70.50;;;;;;4492715;31;20104;-71
2022/11/04 08:02:21;;;;;;;;;;;18.60;71.10;;;;;;4478985;31;20322;-72
2022/11/04 08:04:47;;;;;;;;;;;18.60;71.30;;;;;;4493271;31;19962;-72
2022/11/04 08:07:13;;;;;;;;;;;18.60;71.30;;;;;;4493243;31;19977;-72
2022/11/04 08:09:39;;;;;;;;;;;18.60;71.40;;;;;;4493265;31;20450;-72
2022/11/04 08:12:05;;;;;;;;;;;18.60;71.40;;;;;;4493117;31;20374;-72
2022/11/04 08:14:30;;;;;;;;;;;18.60;71.60;;;;;;4493167;31;20379;-72
2022/11/04 08:16:56;;;;;;;;;;;18.60;71.50;;;;;;4492979;31;20096;-72
2022/11/04 08:19:22;;;;;;;;;;;18.60;71.60;;;;;;4492889;31;19986;-72
2022/11/04 08:21:48;;;;;;;;;;;18.60;71.60;;;;;;4493066;31;20001;-72
2022/11/04 08:24:13;;;;;;;;;;;18.60;71.60;;;;;;4492758;31;19969;-72
2022/11/04 08:26:39;;;;;;;;;;;18.60;71.60;;;;;;4492868;31;20001;-72
2022/11/04 08:29:06;;;;;;;;;;;18.60;71.70;;;;;;4492640;31;19965;-72
2022/11/04 08:31:32;;;;;;;;;;;18.60;71.70;;;;;;4492939;31;20327;-72
2022/11/04 08:33:58;;;;;;;;;;;18.60;71.70;;;;;;4492498;31;20434;-72
2022/11/04 08:36:25;;;;;;;;;;;18.60;71.80;;;;;;4478586;31;19970;-72
2022/11/04 08:38:51;;;;;;;;;;;18.60;71.80;;;;;;4478830;31;20027;-71
2022/11/04 08:41:18;;;;;;;;;;;18.60;71.80;;;;;;4492791;31;19974;-72
2022/11/04 08:43:45;;;;;;;;;;;18.60;71.80;;;;;;4492746;31;20300;-72
2022/11/04 08:46:11;;;;;;;;;;;18.70;71.90;;;;;;4492708;31;19990;-72
2022/11/04 08:48:37;;;;;;;;;;;18.60;71.90;;;;;;4492656;31;19969;-72
2022/11/04 08:51:04;;;;;;;;;;;18.60;71.90;;;;;;4492764;31;19981;-72
2022/11/04 08:53:29;;;;;;;;;;;18.60;71.80;;;;;;4492756;31;20005;-71
2022/11/04 08:55:55;;;;;;;;;;;18.60;71.90;;;;;;4492545;31;19976;-71
2022/11/04 08:58:22;;;;;;;;;;;18.60;71.80;;;;;;4492711;32;20009;-71
2022/11/04 09:00:48;;;;;;;;;;;18.70;71.80;;;;;;4492977;32;20395;-71
2022/11/04 09:03:14;;;;;;;;;;;18.70;71.90;;;;;;4492541;32;20035;-72
2022/11/04 09:05:45;;;;;;;;;;;18.70;71.90;;;;;;4492459;32;20025;-71
2022/11/04 09:08:12;;;;;;;;;;;18.70;71.80;;;;;;4492762;32;20422;-71
2022/11/04 09:10:41;;;;;;;;;;;18.60;71.70;;;;;;4494305;31;20092;-71
2022/11/04 09:13:09;;;;;;;;;;;18.70;71.70;;;;;;4495494;31;19978;-72
2022/11/04 09:15:35;;;;;;;;;;;18.70;71.70;;;;;;4495530;31;20055;-72
2022/11/04 09:18:01;;;;;;;;;;;18.70;71.70;;;;;;4495496;31;19978;-71
2022/11/04 09:20:27;;;;;;;;;;;18.70;71.80;;;;;;4481982;31;19974;-72
2022/11/04 09:22:54;;;;;;;;;;;18.70;71.80;;;;;;4495953;31;20134;-72
2022/11/04 09:25:19;;;;;;;;;;;18.70;71.90;;;;;;4495650;31;20009;-72
2022/11/04 09:27:45;;;;;;;;;;;18.70;71.90;;;;;;4495290;31;20368;-71
2022/11/04 09:30:11;;;;;;;;;;;18.70;71.90;;;;;;4495499;31;19962;-71
2022/11/04 09:32:36;;;;;;;;;;;18.70;72.00;;;;;;4495245;31;20043;-72
2022/11/04 09:35:02;;;;;;;;;;;18.70;72.00;;;;;;4481031;31;19983;-71
2022/11/04 09:37:28;;;;;;;;;;;18.70;71.90;;;;;;4495310;31;20031;-71
2022/11/04 09:39:54;;;;;;;;;;;18.60;71.80;;;;;;4495454;31;20115;-71
2022/11/04 09:42:38;;;;;;;;;;;18.70;72.00;;;;;;4495180;31;20143;-71
2022/11/04 09:45:17;;;;;;;;;;;18.60;71.90;;;;;;4495124;31;20054;-71
2022/11/04 09:47:44;;;;;;;;;;;18.70;72.80;;;;;;4495393;31;19969;-71
2022/11/04 09:50:16;;;;;;;;;;;18.60;71.90;;;;;;4495383;31;20415;-70
2022/11/04 09:52:43;;;;;;;;;;;18.60;71.90;;;;;;4495369;31;19978;-71
2022/11/04 09:55:16;;;;;;;;;;;18.60;71.90;;;;;;4495530;31;20024;-73
2022/11/04 09:57:42;;;;;;;;;;;18.60;71.90;;;;;;4480887;31;19977;-73
2022/11/04 10:00:15;;;;;;;;;;;18.60;71.90;;;;;;4495132;31;20047;-73
2022/11/04 10:02:53;;;;;;;;;;;18.60;72.00;;;;;;4495031;31;19987;-74
2022/11/04 10:05:19;;;;;;;;;;;18.60;72.10;;;;;;4495065;31;19982;-75
2022/11/04 10:07:53;;;;;;;;;;;18.60;72.30;;;;;;4494974;31;20049;-74
2022/11/04 10:10:23;;;;;;;;;;;18.70;72.40;;;;;;4495302;31;20024;-73
2022/11/04 10:13:08;;;;;;;;;;;18.70;72.40;;;;;;4495086;31;20063;-74
2022/11/04 10:15:52;;;;;;;;;;;18.70;72.40;;;;;;4494940;31;19983;-75
2022/11/04 10:18:18;;;;;;;;;;;18.70;72.50;;;;;;4494845;31;20059;-75
2022/11/04 10:21:03;;;;;;;;;;;18.70;72.70;;;;;;4494765;31;19990;-69
2022/11/04 10:23:29;;;;;;;;;;;18.70;72.50;;;;;;4494510;31;19992;-71
2022/11/04 10:26:00;;;;;;;;;;;18.70;72.70;;;;;;4494641;31;19973;-71
2022/11/04 10:28:29;;;;;;;;;;;18.70;72.60;;;;;;4495012;31;20381;-71
2022/11/04 10:30:55;;;;;;;;;;;18.70;72.80;;;;;;4494584;31;19989;-71
2022/11/04 10:33:23;;;;;;;;;;;18.70;73.10;;;;;;4494508;31;19973;-71
2022/11/04 10:35:56;;;;;;;;;;;18.70;73.20;;;;;;4494427;31;20330;-70
2022/11/04 10:38:32;;;;;;;;;;;18.70;73.00;;;;;;4494154;31;19965;-72
2022/11/04 10:40:57;;;;;;;;;;;18.70;72.90;;;;;;4494286;31;19986;-71
2022/11/04 10:43:36;;;;;;;;;;;18.70;72.90;;;;;;4494425;31;20009;-71
2022/11/04 10:46:08;;;;;;;;;;;18.80;73.10;;;;;;4494608;31;19977;-72
2022/11/04 10:48:42;;;;;;;;;;;18.70;73.40;;;;;;4494381;31;19990;-71
2022/11/04 10:51:08;;;;;;;;;;;18.80;73.40;;;;;;4494309;31;20112;-71
2022/11/04 10:53:34;;;;;;;;;;;18.80;73.20;;;;;;4494164;31;20377;-72
2022/11/04 10:56:10;;;;;;;;;;;18.80;73.60;;;;;;4494529;31;20021;-72
2022/11/04 10:58:39;;;;;;;;;;;18.80;73.30;;;;;;4493938;31;19973;-71
2022/11/04 11:01:25;;;;;;;;;;;18.80;73.30;;;;;;4494087;31;20413;-72
2022/11/04 11:03:50;;;;;;;;;;;18.80;73.50;;;;;;4493754;31;19982;-73
2022/11/04 11:06:19;;;;;;;;;;;18.80;73.40;;;;;;4493678;31;19980;-73
2022/11/04 11:08:45;;;;;;;;;;;18.80;73.50;;;;;;4493907;31;19981;-72
2022/11/04 11:11:13;;;;;;;;;;;18.80;73.40;;;;;;4493923;31;20391;-71
2022/11/04 11:13:40;;;;;;;;;;;18.80;73.40;;;;;;4493902;31;20371;-71
2022/11/04 11:16:17;;;;;;;;;;;18.80;73.40;;;;;;4493895;31;20007;-71
2022/11/04 11:18:42;;;;;;;;;;;18.80;73.40;;;;;;4494065;31;20402;-71
2022/11/04 11:21:20;;;;;;;;;;;18.80;73.70;;;;;;4493716;31;20051;-70
2022/11/04 11:23:47;;;;;;;;;;;18.80;73.50;;;;;;4493893;31;19965;-70
2022/11/04 11:26:17;;;;;;;;;;;18.80;73.70;;;;;;4493447;31;20032;-72
2022/11/04 11:28:59;;;;;;;;;;;18.80;73.90;;;;;;4493545;31;20091;-71
2022/11/04 11:31:25;;;;;;;;;;;18.80;73.90;;;;;;4493608;31;19984;-71
2022/11/04 11:33:53;;;;;;;;;;;18.80;74.00;;;;;;4493523;31;20386;-72
2022/11/04 11:36:30;;;;;;;;;;;18.80;74.10;;;;;;4493439;31;19983;-71
2022/11/04 11:39:02;;;;;;;;;;;18.80;74.00;;;;;;4493154;31;20116;-70
2022/11/04 11:41:31;;;;;;;;;;;18.80;74.00;;;;;;4493247;31;20107;-72
2022/11/04 11:44:03;;;;;;;;;;;18.80;73.90;;;;;;4493513;31;19969;-72
2022/11/04 11:46:30;;;;;;;;;;;18.80;74.10;;;;;;4493240;31;19969;-70
2022/11/04 11:49:00;;;;;;;;;;;18.80;74.10;;;;;;4493524;31;19988;-71
2022/11/04 11:51:37;;;;;;;;;;;18.80;73.90;;;;;;4493012;31;19973;-72
2022/11/04 11:54:15;;;;;;;;;;;18.80;73.00;;;;;;4493222;31;19985;-70
2022/11/04 11:56:44;;;;;;;;;;;18.70;73.00;;;;;;4493471;31;20013;-70
2022/11/04 11:59:24;;;;;;;;;;;18.80;72.90;;;;;;4493514;31;20021;-71
2022/11/04 12:02:01;;;;;;;;;;;18.70;72.60;;;;;;4493327;31;20493;-70
2022/11/04 12:04:26;;;;;;;;;;;18.70;72.60;;;;;;4493396;31;20163;-70
2022/11/04 12:06:58;;;;;;;;;;;18.70;72.50;;;;;;4492994;31;19973;-70
2022/11/04 12:09:30;;;;;;;;;;;18.70;72.10;;;;;;4492804;31;19973;-68
2022/11/04 12:11:56;;;;;;;;;;;18.70;72.20;;;;;;4493105;31;19992;-67
2022/11/04 12:14:22;;;;;;;;;;;18.70;71.70;;;;;;4492836;31;19970;-71
2022/11/04 12:16:56;;;;;;;;;;;18.60;71.30;;;;;;4493228;31;20401;-71
2022/11/04 12:19:25;;;;;;;;;;;18.60;71.10;;;;;;4492822;31;19984;-71
2022/11/04 12:22:00;;;;;;;;;;;18.60;71.20;;;;;;4493083;31;20028;-71
2022/11/04 12:24:28;;;;;;;;;;;18.60;71.60;;;;;;4492999;31;20000;-71
2022/11/04 12:27:00;;;;;;;;;;;18.60;71.70;;;;;;4493056;31;19988;-71
2022/11/04 12:29:38;;;;;;;;;;;18.60;71.80;;;;;;4492960;31;20387;-71
2022/11/04 12:32:13;;;;;;;;;;;18.60;71.90;;;;;;4493215;31;19985;-71
2022/11/04 12:34:44;;;;;;;;;;;18.60;72.00;;;;;;4493088;31;19981;-71
2022/11/04 12:37:15;;;;;;;;;;;18.60;72.00;;;;;;4492718;31;20441;-70
2022/11/04 12:39:56;;;;;;;;;;;18.60;72.10;;;;;;4492767;31;19977;-71
2022/11/04 12:42:34;;;;;;;;;;;18.60;72.10;;;;;;4492892;31;19992;-71
2022/11/04 12:45:20;;;;;;;;;;;18.70;72.20;;;;;;4492279;31;19998;-70
2022/11/04 12:47:46;;;;;;;;;;;18.60;72.20;;;;;;4492601;31;19980;-70
2022/11/04 12:50:39;;;;;;;;;;;18.70;72.30;;;;;;4493046;31;19984;-70
2022/11/04 12:53:14;;;;;;;;;;;18.70;72.30;;;;;;4493212;31;20479;-70
2022/11/04 12:56:03;;;;;;;;;;;18.60;72.20;;;;;;4492802;31;20086;-70
2022/11/04 12:58:52;;;;;;;;;;;18.70;72.40;;;;;;4493396;32;20167;-71
2022/11/04 13:01:20;;;;;;;;;;;18.60;72.30;;;;;;4491762;32;19992;-71
2022/11/04 13:04:12;;;;;;;;;;;18.60;72.40;;;;;;4492608;32;19993;-70
2022/11/04 13:06:44;;;;;;;;;;;18.70;72.40;;;;;;4490027;32;19980;-70
2022/11/04 13:09:12;;;;;;;;;;;18.60;72.50;;;;;;4492571;32;19973;-70
2022/11/04 13:11:57;;;;;;;;;;;18.70;72.50;;;;;;4492525;32;19985;-71
2022/11/04 13:14:28;;;;;;;;;;;18.60;72.40;;;;;;4492734;32;19977;-71
2022/11/04 13:16:56;;;;;;;;;;;18.70;72.50;;;;;;4492474;32;19985;-72
2022/11/04 13:19:34;;;;;;;;;;;18.60;72.50;;;;;;4492375;32;19992;-71
2022/11/04 13:22:01;;;;;;;;;;;18.70;72.50;;;;;;4492625;32;19977;-71
2022/11/04 13:24:30;;;;;;;;;;;18.70;72.50;;;;;;4492151;32;19969;-70
2022/11/04 13:27:05;;;;;;;;;;;18.70;72.50;;;;;;4492051;32;19982;-71
2022/11/04 13:29:33;;;;;;;;;;;18.70;72.40;;;;;;4492516;32;20009;-70
2022/11/04 13:32:17;;;;;;;;;;;18.70;72.50;;;;;;4492369;32;20497;-72
2022/11/04 13:34:48;;;;;;;;;;;18.70;72.60;;;;;;4492323;32;19989;-72
2022/11/04 13:37:23;;;;;;;;;;;18.70;72.70;;;;;;4492894;32;20107;-71
2022/11/04 13:40:09;;;;;;;;;;;18.70;72.70;;;;;;4492025;32;20016;-70
2022/11/04 13:42:44;;;;;;;;;;;18.70;72.70;;;;;;4491383;32;19989;-70
2022/11/04 13:45:12;;;;;;;;;;;18.70;72.70;;;;;;4492601;32;20013;-72
2022/11/04 13:47:44;;;;;;;;;;;18.70;72.70;;;;;;4492193;32;20050;-71
2022/11/04 13:50:27;;;;;;;;;;;18.60;72.70;;;;;;4492241;32;20053;-72
2022/11/04 13:52:53;;;;;;;;;;;18.60;72.90;;;;;;4492091;32;19988;-71
2022/11/04 13:55:20;;;;;;;;;;;18.60;73.20;;;;;;4492105;32;19970;-72
2022/11/04 13:57:59;;;;;;;;;;;18.70;73.60;;;;;;4493691;31;19977;-71
2022/11/04 14:00:26;;;;;;;;;;;18.60;73.40;;;;;;4494873;31;20050;-71
2022/11/04 14:02:59;;;;;;;;;;;18.60;73.30;;;;;;4495060;31;19977;-71
2022/11/04 14:05:27;;;;;;;;;;;18.70;73.40;;;;;;4494593;31;19985;-72
2022/11/04 14:07:59;;;;;;;;;;;18.60;73.40;;;;;;4494947;31;19974;-70
2022/11/04 14:10:37;;;;;;;;;;;18.60;73.30;;;;;;4494516;31;19969;-71
2022/11/04 14:13:22;;;;;;;;;;;18.60;73.20;;;;;;4494873;31;20037;-72
2022/11/04 14:16:09;;;;;;;;;;;18.60;73.20;;;;;;4494862;31;19985;-71
2022/11/04 14:18:38;;;;;;;;;;;18.60;73.40;;;;;;4469528;31;20110;-68
2022/11/04 14:21:06;;;;;;;;;;;18.60;73.40;;;;;;4494638;31;20299;-69
2022/11/04 14:23:33;;;;;;;;;;;18.60;73.00;;;;;;4494384;31;20502;-66
2022/11/04 14:26:01;;;;;;;;;;;18.60;72.90;;;;;;4494665;31;20407;-73
2022/11/04 14:28:28;;;;;;;;;;;18.60;72.70;;;;;;4494598;31;19992;-72
2022/11/04 14:30:58;;;;;;;;;;;18.60;72.90;;;;;;4494615;31;20000;-70
2022/11/04 14:33:24;;;;;;;;;;;18.60;72.90;;;;;;4480015;31;19980;-71
2022/11/04 14:35:50;;;;;;;;;;;18.60;72.90;;;;;;4494177;31;19966;-72
2022/11/04 14:38:27;;;;;;;;;;;18.60;73.00;;;;;;4494488;31;19970;-72
2022/11/04 14:41:11;;;;;;;;;;;18.50;72.90;;;;;;4494604;31;19977;-71
2022/11/04 14:43:39;;;;;;;;;;;18.50;72.90;;;;;;4494746;31;19984;-71
2022/11/04 14:46:04;;;;;;;;;;;18.50;72.90;;;;;;4494518;31;19985;-72
2022/11/04 14:48:30;;;;;;;;;;;18.50;72.90;;;;;;4494634;31;20001;-71
2022/11/04 14:50:56;;;;;;;;;;;18.50;73.00;;;;;;4494371;31;19985;-72
2022/11/04 14:53:32;;;;;;;;;;;18.50;73.00;;;;;;4494300;31;20319;-72
2022/11/04 14:56:04;;;;;;;;;;;18.50;73.00;;;;;;4494290;31;20379;-71
2022/11/04 14:58:29;;;;;;;;;;;18.40;72.90;;;;;;4493864;31;19987;-71